Etusivu
METAR-TAF:

METAR-TAF

Lentoasemat :

Lappeenrannan lentoasema

Lappeenranta, Suomi

Leveyspiiri: 61-02-45N, Pituuspiiri: 028-08-55E, korkeus merenpinnasta: 106 m

Tämänhetkinen sää

Tämä raportti tehtiin 36 minuuttia sitten, kello 22.50 UTC
Tuuli 4 kn pohjoisesta, vaihdellen luoteen ja koillisen välillä
Lämpötila 0°C
Kosteus 86%
Ilmanpaine 1031 hPa
Näkyvyys 10 km tai enemmän
Muutamia pilviä 1100 ft:n korkeudessa

METAR: EFLP 202250Z AUTO 35004KT 310V040 9999 FEW011 M00/M02 Q1031

Aika: 01:26 (23:26 UTC)

Sääennuste

Tämä raportti tehtiin 14 tuntia ja 54 minuuttia sitten, kello 08.32 UTC
Ennuste voimassa 20. päivästä klo 09 UTC - 20. päivään klo 12 UTC
Tuuli 8 kn lännestä
Näkyvyys 10 km tai enemmän
Hajonneita pilviä 500 ft:n korkeudessa

TAF: EFLP 200832Z 2009/2012 28008KT 9999 BKN005

Säähavainnot ja -ennusteet yli 4000 lentoasemalta (METAR- ja TAF-raportit).

Käytössä olevat sääasemat on merkitty karttaan keltaisilla ja punaisilla pisteillä.

Aseta hiiri pisteen päälle nähdäksesi sääaseman nimen.

Klikkaa sitten nähdäksesi säähavainnot ja -ennusteet.

Kartan vaihtaminen: klikkaa mustalla rastilla varustettuja vihreitä pisteitä, niin voit zoomata sisään; viivalla varustettua vihreää pistettä, niin voit zoomata ulos tai vihreitä nuolia, niin pääset viereisille kartoille.


METAR-TAF: